Friendswood, Texas
Current Conditions -  °F | °C
As of 9:53 PM on Wednesday 26 Nov 2014 (Local Time) from KLVJ Reporting Station
Clear Clear  
Wind Chill: 55°   Ceiling: Unl
Heat Index: 55°   Visibility: 10mi
Dew Point: 44°   Wind: 6mph
Humidity: 67%   Direction: NA
Pressure: 30.31"   Gusts: NA
Location:  29.53°N, 95.2°W
Report Text: KLVJ 270353Z AUTO VRB05KT 10SM CLR 13/07 A3031 RMK AO2 SLP261 T01280067
Loading
Personal Weather Stations






























Interactive Weather Map New forecast layout! Learn more

10-Day Weather Forecast

Advertisements
Track Severe Weather on mobile